VVPB/HUI METAR and TAF weather

Enter ICAO airport designator
Station Type Date Time Source
VVPB METAR 2019/12/12 09:00 UTC NOAA

VVPB 120900Z 32003KT 4500 BR SCT015 BKN040 22/20 Q1017 TEMPO 2800 RA BR


Station Type Date Time Source
VVPB Decoded METAR 2019/12/12 09:00 UTC NOAA

Hue, Vietnam (VVPB) 16-24N 107-41E 17M
Dec 12, 2019 - 04:00 AM EST / 2019.12.12 0900 UTC
Wind: from the NW (320 degrees) at 3 MPH (3 KT):0
Visibility: 2 mile(s):0
Sky conditions: mostly cloudy
Weather: mist
Temperature: 71 F (22 C)
Dew Point: 68 F (20 C)
Relative Humidity: 88%
Pressure (altimeter): 30.03 in. Hg (1017 hPa)
ob: VVPB 120900Z 32003KT 4500 BR SCT015 BKN040 22/20 Q1017 TEMPO 2800 RA BR
cycle: 9

Station Type Date Time Source
VVPB TAF 2019/12/12 06:00 UTC NOAA

TAF VVPB 120500Z 1206/1306 33008KT 7000 SCT015 BKN050
TEMPO 1206/1208 4000 RA BR
TEMPO 1208/1214 2800 RA BR SCT008 BKN040
TEMPO 1217/1302 2800 RA BR SCT008 BKN040

Example: see airport list